sensor_id;sensor_type;location;lat;lon;timestamp;P1;durP1;ratioP1;P2;durP2;ratioP2
4202;SDS011;2115;51.038;7.006;2022-10-30T00:00:09;17.17;;;6.90;;
4202;SDS011;2115;51.038;7.006;2022-10-30T00:02:34;20.90;;;7.27;;
4202;SDS011;2115;51.038;7.006;2022-10-30T00:05:00;21.03;;;6.60;;
4202;SDS011;2115;51.038;7.006;2022-10-30T00:07:25;15.87;;;7.37;;
4202;SDS011;2115;51.038;7.006;2022-10-30T00:09:50;14.70;;;6.73;;
4202;SDS011;2115;51.038;7.006;2022-10-30T00:12:16;21.27;;;7.70;;
4202;SDS011;2115;51.038;7.006;2022-10-30T00:14:41;24.23;;;7.43;;
4202;SDS011;2115;51.038;7.006;2022-10-30T00:17:06;14.73;;;6.90;;
4202;SDS011;2115;51.038;7.006;2022-10-30T00:19:31;19.50;;;6.60;;
4202;SDS011;2115;51.038;7.006;2022-10-30T00:21:57;14.20;;;6.80;;
4202;SDS011;2115;51.038;7.006;2022-10-30T00:24:23;12.40;;;5.83;;
4202;SDS011;2115;51.038;7.006;2022-10-30T00:26:48;17.53;;;5.90;;
4202;SDS011;2115;51.038;7.006;2022-10-30T00:29:14;12.03;;;7.10;;
4202;SDS011;2115;51.038;7.006;2022-10-30T00:31:39;29.20;;;7.17;;
4202;SDS011;2115;51.038;7.006;2022-10-30T00:34:04;18.80;;;6.90;;
4202;SDS011;2115;51.038;7.006;2022-10-30T00:36:30;19.50;;;6.37;;
4202;SDS011;2115;51.038;7.006;2022-10-30T00:38:55;14.10;;;6.43;;
4202;SDS011;2115;51.038;7.006;2022-10-30T00:41:21;13.33;;;6.30;;
4202;SDS011;2115;51.038;7.006;2022-10-30T00:43:47;19.10;;;5.97;;
4202;SDS011;2115;51.038;7.006;2022-10-30T00:48:57;16.90;;;6.40;;
4202;SDS011;2115;51.038;7.006;2022-10-30T00:51:25;21.50;;;7.07;;
4202;SDS011;2115;51.038;7.006;2022-10-30T00:53:52;23.73;;;6.33;;
4202;SDS011;2115;51.038;7.006;2022-10-30T00:56:18;17.73;;;6.20;;
4202;SDS011;2115;51.038;7.006;2022-10-30T00:59:27;20.50;;;7.03;;
4202;SDS011;2115;51.038;7.006;2022-10-30T01:01:35;21.90;;;7.00;;
4202;SDS011;2115;51.038;7.006;2022-10-30T01:04:05;18.53;;;7.67;;
4202;SDS011;2115;51.038;7.006;2022-10-30T01:06:31;25.50;;;7.60;;
4202;SDS011;2115;51.038;7.006;2022-10-30T01:09:07;18.03;;;7.47;;
4202;SDS011;2115;51.038;7.006;2022-10-30T01:11:33;18.60;;;6.73;;
4202;SDS011;2115;51.038;7.006;2022-10-30T01:14:00;16.23;;;7.30;;
4202;SDS011;2115;51.038;7.006;2022-10-30T01:24:45;16.50;;;7.57;;
4202;SDS011;2115;51.038;7.006;2022-10-30T01:33:37;13.40;;;6.93;;
4202;SDS011;2115;51.038;7.006;2022-10-30T01:36:21;15.43;;;7.17;;
4202;SDS011;2115;51.038;7.006;2022-10-30T01:38:52;21.30;;;8.10;;
4202;SDS011;2115;51.038;7.006;2022-10-30T01:41:19;13.03;;;7.63;;
4202;SDS011;2115;51.038;7.006;2022-10-30T01:43:45;26.53;;;8.57;;
4202;SDS011;2115;51.038;7.006;2022-10-30T01:56:47;18.03;;;7.33;;
4202;SDS011;2115;51.038;7.006;2022-10-30T01:59:24;19.90;;;7.20;;
4202;SDS011;2115;51.038;7.006;2022-10-30T02:01:54;17.23;;;7.40;;
4202;SDS011;2115;51.038;7.006;2022-10-30T02:04:20;18.27;;;7.30;;
4202;SDS011;2115;51.038;7.006;2022-10-30T02:06:45;25.90;;;7.87;;
4202;SDS011;2115;51.038;7.006;2022-10-30T02:09:13;25.00;;;8.37;;
4202;SDS011;2115;51.038;7.006;2022-10-30T02:11:39;21.27;;;6.97;;
4202;SDS011;2115;51.038;7.006;2022-10-30T02:14:05;16.50;;;6.63;;
4202;SDS011;2115;51.038;7.006;2022-10-30T02:16:36;19.93;;;6.33;;
4202;SDS011;2115;51.038;7.006;2022-10-30T02:19:03;15.77;;;7.00;;
4202;SDS011;2115;51.038;7.006;2022-10-30T02:21:30;15.23;;;7.50;;
4202;SDS011;2115;51.038;7.006;2022-10-30T02:23:55;19.80;;;7.50;;
4202;SDS011;2115;51.038;7.006;2022-10-30T02:26:21;18.60;;;8.07;;
4202;SDS011;2115;51.038;7.006;2022-10-30T02:28:46;18.63;;;8.10;;
4202;SDS011;2115;51.038;7.006;2022-10-30T02:31:11;13.53;;;7.83;;
4202;SDS011;2115;51.038;7.006;2022-10-30T02:33:37;17.60;;;7.47;;
4202;SDS011;2115;51.038;7.006;2022-10-30T02:36:02;23.73;;;6.87;;
4202;SDS011;2115;51.038;7.006;2022-10-30T02:38:28;25.03;;;7.20;;
4202;SDS011;2115;51.038;7.006;2022-10-30T02:40:53;20.40;;;8.60;;
4202;SDS011;2115;51.038;7.006;2022-10-30T02:43:21;20.90;;;8.30;;
4202;SDS011;2115;51.038;7.006;2022-10-30T02:45:50;19.63;;;7.90;;
4202;SDS011;2115;51.038;7.006;2022-10-30T02:48:15;18.40;;;8.27;;
4202;SDS011;2115;51.038;7.006;2022-10-30T02:50:41;13.03;;;8.20;;
4202;SDS011;2115;51.038;7.006;2022-10-30T02:53:06;21.60;;;8.33;;
4202;SDS011;2115;51.038;7.006;2022-10-30T02:55:31;18.73;;;7.87;;
4202;SDS011;2115;51.038;7.006;2022-10-30T02:57:57;22.97;;;8.17;;
4202;SDS011;2115;51.038;7.006;2022-10-30T03:00:22;16.00;;;7.10;;
4202;SDS011;2115;51.038;7.006;2022-10-30T03:02:47;22.17;;;9.00;;
4202;SDS011;2115;51.038;7.006;2022-10-30T03:05:13;22.03;;;8.20;;
4202;SDS011;2115;51.038;7.006;2022-10-30T03:07:38;20.63;;;7.20;;
4202;SDS011;2115;51.038;7.006;2022-10-30T03:10:03;17.63;;;6.77;;
4202;SDS011;2115;51.038;7.006;2022-10-30T03:12:29;17.43;;;6.80;;
4202;SDS011;2115;51.038;7.006;2022-10-30T03:14:54;18.80;;;7.30;;
4202;SDS011;2115;51.038;7.006;2022-10-30T03:17:20;13.60;;;6.93;;
4202;SDS011;2115;51.038;7.006;2022-10-30T03:19:45;21.10;;;7.83;;
4202;SDS011;2115;51.038;7.006;2022-10-30T03:22:10;20.10;;;7.00;;
4202;SDS011;2115;51.038;7.006;2022-10-30T03:24:36;20.27;;;7.93;;
4202;SDS011;2115;51.038;7.006;2022-10-30T03:27:02;26.53;;;7.07;;
4202;SDS011;2115;51.038;7.006;2022-10-30T03:29:27;17.90;;;8.53;;
4202;SDS011;2115;51.038;7.006;2022-10-30T03:31:53;22.23;;;7.80;;
4202;SDS011;2115;51.038;7.006;2022-10-30T03:34:18;20.10;;;8.13;;
4202;SDS011;2115;51.038;7.006;2022-10-30T03:36:43;13.20;;;7.37;;
4202;SDS011;2115;51.038;7.006;2022-10-30T03:39:09;17.30;;;7.20;;
4202;SDS011;2115;51.038;7.006;2022-10-30T03:41:34;17.60;;;8.20;;
4202;SDS011;2115;51.038;7.006;2022-10-30T03:43:59;28.93;;;7.57;;
4202;SDS011;2115;51.038;7.006;2022-10-30T03:46:25;17.00;;;7.20;;
4202;SDS011;2115;51.038;7.006;2022-10-30T03:48:50;19.57;;;6.80;;
4202;SDS011;2115;51.038;7.006;2022-10-30T03:51:16;24.97;;;7.43;;
4202;SDS011;2115;51.038;7.006;2022-10-30T03:53:41;15.03;;;7.20;;
4202;SDS011;2115;51.038;7.006;2022-10-30T03:56:08;16.60;;;6.93;;
4202;SDS011;2115;51.038;7.006;2022-10-30T03:58:34;20.80;;;8.03;;
4202;SDS011;2115;51.038;7.006;2022-10-30T04:01:00;25.53;;;7.60;;
4202;SDS011;2115;51.038;7.006;2022-10-30T04:03:26;22.03;;;6.83;;
4202;SDS011;2115;51.038;7.006;2022-10-30T04:05:52;25.13;;;9.13;;
4202;SDS011;2115;51.038;7.006;2022-10-30T04:08:17;25.37;;;7.53;;
4202;SDS011;2115;51.038;7.006;2022-10-30T04:10:43;18.63;;;7.53;;
4202;SDS011;2115;51.038;7.006;2022-10-30T04:13:09;17.13;;;8.10;;
4202;SDS011;2115;51.038;7.006;2022-10-30T04:15:36;24.27;;;7.30;;
4202;SDS011;2115;51.038;7.006;2022-10-30T04:18:02;26.30;;;7.57;;
4202;SDS011;2115;51.038;7.006;2022-10-30T04:20:29;16.47;;;7.53;;
4202;SDS011;2115;51.038;7.006;2022-10-30T04:22:58;16.63;;;7.57;;
4202;SDS011;2115;51.038;7.006;2022-10-30T04:25:25;17.00;;;6.77;;
4202;SDS011;2115;51.038;7.006;2022-10-30T04:27:51;28.10;;;8.70;;
4202;SDS011;2115;51.038;7.006;2022-10-30T04:30:17;15.20;;;6.97;;
4202;SDS011;2115;51.038;7.006;2022-10-30T04:32:48;16.90;;;7.97;;
4202;SDS011;2115;51.038;7.006;2022-10-30T04:35:15;24.33;;;8.07;;
4202;SDS011;2115;51.038;7.006;2022-10-30T04:37:42;25.73;;;8.00;;
4202;SDS011;2115;51.038;7.006;2022-10-30T04:40:13;12.27;;;7.03;;
4202;SDS011;2115;51.038;7.006;2022-10-30T04:42:38;20.57;;;7.87;;
4202;SDS011;2115;51.038;7.006;2022-10-30T04:45:04;15.77;;;7.93;;
4202;SDS011;2115;51.038;7.006;2022-10-30T04:47:30;17.10;;;6.87;;
4202;SDS011;2115;51.038;7.006;2022-10-30T04:49:55;20.30;;;7.80;;
4202;SDS011;2115;51.038;7.006;2022-10-30T04:52:22;14.93;;;7.10;;
4202;SDS011;2115;51.038;7.006;2022-10-30T04:54:47;15.80;;;6.77;;
4202;SDS011;2115;51.038;7.006;2022-10-30T04:57:13;13.80;;;6.83;;
4202;SDS011;2115;51.038;7.006;2022-10-30T04:59:38;14.87;;;6.63;;
4202;SDS011;2115;51.038;7.006;2022-10-30T05:02:03;18.40;;;7.23;;
4202;SDS011;2115;51.038;7.006;2022-10-30T05:04:29;19.87;;;6.97;;
4202;SDS011;2115;51.038;7.006;2022-10-30T05:06:54;12.43;;;6.40;;
4202;SDS011;2115;51.038;7.006;2022-10-30T05:09:19;18.23;;;7.67;;
4202;SDS011;2115;51.038;7.006;2022-10-30T05:11:45;16.67;;;5.90;;
4202;SDS011;2115;51.038;7.006;2022-10-30T05:14:11;34.13;;;8.13;;
4202;SDS011;2115;51.038;7.006;2022-10-30T05:16:36;12.33;;;7.07;;
4202;SDS011;2115;51.038;7.006;2022-10-30T05:19:01;24.63;;;6.70;;
4202;SDS011;2115;51.038;7.006;2022-10-30T05:21:28;13.93;;;6.30;;
4202;SDS011;2115;51.038;7.006;2022-10-30T05:23:55;14.40;;;6.63;;
4202;SDS011;2115;51.038;7.006;2022-10-30T05:26:20;12.37;;;6.47;;
4202;SDS011;2115;51.038;7.006;2022-10-30T05:28:45;15.33;;;6.93;;
4202;SDS011;2115;51.038;7.006;2022-10-30T05:31:11;17.03;;;6.57;;
4202;SDS011;2115;51.038;7.006;2022-10-30T05:33:36;16.03;;;6.60;;
4202;SDS011;2115;51.038;7.006;2022-10-30T05:36:02;19.57;;;6.60;;
4202;SDS011;2115;51.038;7.006;2022-10-30T05:38:27;19.60;;;7.77;;
4202;SDS011;2115;51.038;7.006;2022-10-30T05:40:53;11.40;;;6.40;;
4202;SDS011;2115;51.038;7.006;2022-10-30T05:43:18;12.13;;;6.30;;
4202;SDS011;2115;51.038;7.006;2022-10-30T05:45:43;23.23;;;7.30;;
4202;SDS011;2115;51.038;7.006;2022-10-30T05:48:09;17.37;;;6.60;;
4202;SDS011;2115;51.038;7.006;2022-10-30T05:50:34;12.77;;;6.30;;
4202;SDS011;2115;51.038;7.006;2022-10-30T05:53:01;14.30;;;7.30;;
4202;SDS011;2115;51.038;7.006;2022-10-30T05:55:27;21.00;;;5.90;;
4202;SDS011;2115;51.038;7.006;2022-10-30T05:57:56;14.37;;;6.47;;
4202;SDS011;2115;51.038;7.006;2022-10-30T06:00:22;12.00;;;6.53;;
4202;SDS011;2115;51.038;7.006;2022-10-30T06:02:48;19.83;;;6.80;;
4202;SDS011;2115;51.038;7.006;2022-10-30T06:05:14;14.53;;;7.17;;
4202;SDS011;2115;51.038;7.006;2022-10-30T06:07:39;16.40;;;7.47;;
4202;SDS011;2115;51.038;7.006;2022-10-30T06:10:05;17.53;;;7.33;;
4202;SDS011;2115;51.038;7.006;2022-10-30T06:12:30;23.20;;;9.10;;
4202;SDS011;2115;51.038;7.006;2022-10-30T06:14:56;10.53;;;7.03;;
4202;SDS011;2115;51.038;7.006;2022-10-30T06:17:21;18.83;;;6.87;;
4202;SDS011;2115;51.038;7.006;2022-10-30T06:19:47;16.73;;;7.53;;
4202;SDS011;2115;51.038;7.006;2022-10-30T06:22:12;24.97;;;6.93;;
4202;SDS011;2115;51.038;7.006;2022-10-30T06:24:37;65.07;;;8.80;;
4202;SDS011;2115;51.038;7.006;2022-10-30T06:27:03;20.47;;;7.40;;
4202;SDS011;2115;51.038;7.006;2022-10-30T06:29:28;18.83;;;6.97;;
4202;SDS011;2115;51.038;7.006;2022-10-30T06:31:53;18.40;;;7.33;;
4202;SDS011;2115;51.038;7.006;2022-10-30T06:34:18;22.43;;;8.03;;
4202;SDS011;2115;51.038;7.006;2022-10-30T06:36:44;13.37;;;8.30;;
4202;SDS011;2115;51.038;7.006;2022-10-30T06:39:09;26.77;;;7.37;;
4202;SDS011;2115;51.038;7.006;2022-10-30T06:41:34;17.87;;;7.87;;
4202;SDS011;2115;51.038;7.006;2022-10-30T06:44:00;20.80;;;7.87;;
4202;SDS011;2115;51.038;7.006;2022-10-30T06:46:25;14.10;;;6.83;;
4202;SDS011;2115;51.038;7.006;2022-10-30T06:48:50;13.20;;;7.47;;
4202;SDS011;2115;51.038;7.006;2022-10-30T06:51:16;16.00;;;7.67;;
4202;SDS011;2115;51.038;7.006;2022-10-30T06:53:42;17.20;;;8.17;;
4202;SDS011;2115;51.038;7.006;2022-10-30T06:56:07;17.80;;;7.77;;
4202;SDS011;2115;51.038;7.006;2022-10-30T06:58:33;30.07;;;8.57;;
4202;SDS011;2115;51.038;7.006;2022-10-30T07:01:03;16.77;;;7.60;;
4202;SDS011;2115;51.038;7.006;2022-10-30T07:03:29;14.30;;;7.43;;
4202;SDS011;2115;51.038;7.006;2022-10-30T07:05:55;18.17;;;7.30;;
4202;SDS011;2115;51.038;7.006;2022-10-30T07:08:20;14.40;;;7.00;;
4202;SDS011;2115;51.038;7.006;2022-10-30T07:10:45;24.13;;;8.80;;
4202;SDS011;2115;51.038;7.006;2022-10-30T07:13:10;24.63;;;7.40;;
4202;SDS011;2115;51.038;7.006;2022-10-30T07:15:36;18.97;;;7.57;;
4202;SDS011;2115;51.038;7.006;2022-10-30T07:18:02;14.77;;;7.63;;
4202;SDS011;2115;51.038;7.006;2022-10-30T07:20:28;17.93;;;6.93;;
4202;SDS011;2115;51.038;7.006;2022-10-30T07:22:54;13.60;;;7.57;;
4202;SDS011;2115;51.038;7.006;2022-10-30T07:25:19;16.50;;;8.57;;
4202;SDS011;2115;51.038;7.006;2022-10-30T07:27:45;29.00;;;7.50;;
4202;SDS011;2115;51.038;7.006;2022-10-30T07:30:12;14.60;;;7.17;;
4202;SDS011;2115;51.038;7.006;2022-10-30T07:32:39;18.60;;;9.20;;
4202;SDS011;2115;51.038;7.006;2022-10-30T07:35:05;25.13;;;7.80;;
4202;SDS011;2115;51.038;7.006;2022-10-30T07:37:30;22.73;;;8.17;;
4202;SDS011;2115;51.038;7.006;2022-10-30T07:39:56;24.90;;;7.83;;
4202;SDS011;2115;51.038;7.006;2022-10-30T07:42:21;19.50;;;8.00;;
4202;SDS011;2115;51.038;7.006;2022-10-30T07:44:47;35.67;;;8.70;;
4202;SDS011;2115;51.038;7.006;2022-10-30T07:47:12;16.10;;;7.80;;
4202;SDS011;2115;51.038;7.006;2022-10-30T07:49:37;18.10;;;8.20;;
4202;SDS011;2115;51.038;7.006;2022-10-30T07:52:03;19.60;;;7.70;;
4202;SDS011;2115;51.038;7.006;2022-10-30T07:54:28;17.43;;;8.17;;
4202;SDS011;2115;51.038;7.006;2022-10-30T07:56:54;23.67;;;8.30;;
4202;SDS011;2115;51.038;7.006;2022-10-30T07:59:19;20.37;;;8.30;;
4202;SDS011;2115;51.038;7.006;2022-10-30T08:01:44;22.03;;;8.20;;
4202;SDS011;2115;51.038;7.006;2022-10-30T08:04:10;17.20;;;8.07;;
4202;SDS011;2115;51.038;7.006;2022-10-30T08:06:38;14.93;;;7.47;;
4202;SDS011;2115;51.038;7.006;2022-10-30T08:09:03;26.10;;;7.77;;
4202;SDS011;2115;51.038;7.006;2022-10-30T08:11:29;18.13;;;6.27;;
4202;SDS011;2115;51.038;7.006;2022-10-30T08:13:54;27.80;;;8.00;;
4202;SDS011;2115;51.038;7.006;2022-10-30T08:16:20;18.70;;;7.13;;
4202;SDS011;2115;51.038;7.006;2022-10-30T08:18:45;23.73;;;6.80;;
4202;SDS011;2115;51.038;7.006;2022-10-30T08:21:11;15.90;;;7.33;;
4202;SDS011;2115;51.038;7.006;2022-10-30T08:23:36;26.87;;;6.90;;
4202;SDS011;2115;51.038;7.006;2022-10-30T08:26:02;16.83;;;6.53;;
4202;SDS011;2115;51.038;7.006;2022-10-30T08:28:27;15.67;;;6.87;;
4202;SDS011;2115;51.038;7.006;2022-10-30T08:30:53;27.87;;;6.93;;
4202;SDS011;2115;51.038;7.006;2022-10-30T08:33:18;19.07;;;7.57;;
4202;SDS011;2115;51.038;7.006;2022-10-30T08:35:48;18.87;;;7.30;;
4202;SDS011;2115;51.038;7.006;2022-10-30T08:38:26;18.30;;;6.30;;
4202;SDS011;2115;51.038;7.006;2022-10-30T08:40:52;19.83;;;6.43;;
4202;SDS011;2115;51.038;7.006;2022-10-30T08:43:18;20.80;;;6.20;;
4202;SDS011;2115;51.038;7.006;2022-10-30T08:45:44;20.17;;;6.40;;
4202;SDS011;2115;51.038;7.006;2022-10-30T08:48:10;16.33;;;6.43;;
4202;SDS011;2115;51.038;7.006;2022-10-30T08:50:37;11.57;;;5.53;;
4202;SDS011;2115;51.038;7.006;2022-10-30T08:53:03;18.93;;;5.90;;
4202;SDS011;2115;51.038;7.006;2022-10-30T08:55:30;25.63;;;6.10;;
4202;SDS011;2115;51.038;7.006;2022-10-30T08:57:57;16.83;;;6.10;;
4202;SDS011;2115;51.038;7.006;2022-10-30T09:00:22;20.80;;;6.97;;
4202;SDS011;2115;51.038;7.006;2022-10-30T09:02:48;23.77;;;6.03;;
4202;SDS011;2115;51.038;7.006;2022-10-30T09:05:13;19.37;;;6.57;;
4202;SDS011;2115;51.038;7.006;2022-10-30T09:07:39;13.20;;;4.80;;
4202;SDS011;2115;51.038;7.006;2022-10-30T09:10:04;15.23;;;6.10;;
4202;SDS011;2115;51.038;7.006;2022-10-30T09:12:30;20.73;;;5.40;;
4202;SDS011;2115;51.038;7.006;2022-10-30T09:14:56;14.30;;;5.97;;
4202;SDS011;2115;51.038;7.006;2022-10-30T09:17:21;14.47;;;5.70;;
4202;SDS011;2115;51.038;7.006;2022-10-30T09:19:46;19.33;;;5.43;;
4202;SDS011;2115;51.038;7.006;2022-10-30T09:22:12;14.50;;;5.23;;
4202;SDS011;2115;51.038;7.006;2022-10-30T09:24:37;20.90;;;5.87;;
4202;SDS011;2115;51.038;7.006;2022-10-30T09:27:04;13.30;;;5.40;;
4202;SDS011;2115;51.038;7.006;2022-10-30T09:29:29;36.07;;;5.73;;
4202;SDS011;2115;51.038;7.006;2022-10-30T09:31:55;11.47;;;5.63;;
4202;SDS011;2115;51.038;7.006;2022-10-30T09:34:21;20.53;;;5.13;;
4202;SDS011;2115;51.038;7.006;2022-10-30T09:36:47;13.30;;;4.57;;
4202;SDS011;2115;51.038;7.006;2022-10-30T09:39:13;12.60;;;5.43;;
4202;SDS011;2115;51.038;7.006;2022-10-30T09:44:24;25.20;;;5.77;;
4202;SDS011;2115;51.038;7.006;2022-10-30T09:59:09;19.10;;;4.77;;
4202;SDS011;2115;51.038;7.006;2022-10-30T10:06:45;22.57;;;5.73;;
4202;SDS011;2115;51.038;7.006;2022-10-30T10:11:42;15.60;;;5.30;;
4202;SDS011;2115;51.038;7.006;2022-10-30T10:14:13;20.30;;;6.00;;
4202;SDS011;2115;51.038;7.006;2022-10-30T10:16:39;17.07;;;5.20;;
4202;SDS011;2115;51.038;7.006;2022-10-30T10:19:08;14.40;;;5.10;;
4202;SDS011;2115;51.038;7.006;2022-10-30T10:21:41;12.20;;;4.37;;
4202;SDS011;2115;51.038;7.006;2022-10-30T10:24:20;14.57;;;5.13;;
4202;SDS011;2115;51.038;7.006;2022-10-30T10:26:47;15.67;;;4.43;;
4202;SDS011;2115;51.038;7.006;2022-10-30T10:29:19;18.63;;;5.17;;
4202;SDS011;2115;51.038;7.006;2022-10-30T10:37:34;15.33;;;4.87;;
4202;SDS011;2115;51.038;7.006;2022-10-30T10:43:08;19.47;;;4.73;;
4202;SDS011;2115;51.038;7.006;2022-10-30T10:45:44;16.23;;;4.63;;
4202;SDS011;2115;51.038;7.006;2022-10-30T10:48:26;13.13;;;5.67;;
4202;SDS011;2115;51.038;7.006;2022-10-30T10:53:45;14.77;;;4.77;;
4202;SDS011;2115;51.038;7.006;2022-10-30T10:56:19;13.50;;;4.60;;
4202;SDS011;2115;51.038;7.006;2022-10-30T10:59:22;19.03;;;4.90;;
4202;SDS011;2115;51.038;7.006;2022-10-30T11:01:59;14.43;;;4.73;;
4202;SDS011;2115;51.038;7.006;2022-10-30T11:04:46;14.97;;;4.67;;
4202;SDS011;2115;51.038;7.006;2022-10-30T11:07:20;13.60;;;4.70;;
4202;SDS011;2115;51.038;7.006;2022-10-30T11:09:51;19.40;;;5.53;;
4202;SDS011;2115;51.038;7.006;2022-10-30T11:12:35;12.80;;;5.10;;
4202;SDS011;2115;51.038;7.006;2022-10-30T11:15:17;16.00;;;5.32;;
4202;SDS011;2115;51.038;7.006;2022-10-30T11:17:54;10.23;;;4.53;;
4202;SDS011;2115;51.038;7.006;2022-10-30T11:20:28;12.17;;;4.90;;
4202;SDS011;2115;51.038;7.006;2022-10-30T11:26:03;15.73;;;5.00;;
4202;SDS011;2115;51.038;7.006;2022-10-30T11:31:19;12.10;;;5.60;;
4202;SDS011;2115;51.038;7.006;2022-10-30T11:33:47;13.67;;;4.70;;
4202;SDS011;2115;51.038;7.006;2022-10-30T11:36:14;12.23;;;4.73;;
4202;SDS011;2115;51.038;7.006;2022-10-30T11:38:41;20.20;;;4.77;;
4202;SDS011;2115;51.038;7.006;2022-10-30T11:41:06;13.30;;;4.70;;
4202;SDS011;2115;51.038;7.006;2022-10-30T11:43:34;19.97;;;4.67;;
4202;SDS011;2115;51.038;7.006;2022-10-30T11:46:00;13.73;;;5.33;;
4202;SDS011;2115;51.038;7.006;2022-10-30T11:48:27;13.23;;;4.80;;
4202;SDS011;2115;51.038;7.006;2022-10-30T11:50:58;19.92;;;4.18;;
4202;SDS011;2115;51.038;7.006;2022-10-30T11:53:26;13.73;;;4.43;;
4202;SDS011;2115;51.038;7.006;2022-10-30T11:55:56;14.00;;;4.18;;
4202;SDS011;2115;51.038;7.006;2022-10-30T11:58:28;22.50;;;4.88;;
4202;SDS011;2115;51.038;7.006;2022-10-30T12:03:38;11.32;;;4.30;;
4202;SDS011;2115;51.038;7.006;2022-10-30T12:08:58;17.07;;;4.40;;
4202;SDS011;2115;51.038;7.006;2022-10-30T12:11:36;13.83;;;4.17;;
4202;SDS011;2115;51.038;7.006;2022-10-30T12:14:03;14.53;;;3.60;;
4202;SDS011;2115;51.038;7.006;2022-10-30T12:16:29;10.80;;;4.83;;
4202;SDS011;2115;51.038;7.006;2022-10-30T12:19:05;17.90;;;4.43;;
4202;SDS011;2115;51.038;7.006;2022-10-30T12:21:38;18.80;;;5.23;;
4202;SDS011;2115;51.038;7.006;2022-10-30T12:24:04;12.53;;;4.57;;
4202;SDS011;2115;51.038;7.006;2022-10-30T12:26:33;13.20;;;4.37;;
4202;SDS011;2115;51.038;7.006;2022-10-30T12:29:01;14.60;;;4.40;;
4202;SDS011;2115;51.038;7.006;2022-10-30T12:31:33;11.80;;;4.67;;
4202;SDS011;2115;51.038;7.006;2022-10-30T12:36:29;12.90;;;4.17;;
4202;SDS011;2115;51.038;7.006;2022-10-30T12:39:08;17.67;;;4.77;;
4202;SDS011;2115;51.038;7.006;2022-10-30T12:44:31;15.60;;;6.30;;
4202;SDS011;2115;51.038;7.006;2022-10-30T12:49:37;17.27;;;4.80;;
4202;SDS011;2115;51.038;7.006;2022-10-30T12:57:25;18.23;;;4.47;;
4202;SDS011;2115;51.038;7.006;2022-10-30T13:08:11;14.73;;;4.40;;
4202;SDS011;2115;51.038;7.006;2022-10-30T13:10:57;10.87;;;4.27;;
4202;SDS011;2115;51.038;7.006;2022-10-30T13:13:29;14.07;;;4.67;;
4202;SDS011;2115;51.038;7.006;2022-10-30T13:15:59;9.30;;;4.40;;
4202;SDS011;2115;51.038;7.006;2022-10-30T13:18:27;15.50;;;4.60;;
4202;SDS011;2115;51.038;7.006;2022-10-30T13:29:00;13.63;;;5.23;;
4202;SDS011;2115;51.038;7.006;2022-10-30T13:32:05;13.87;;;4.67;;
4202;SDS011;2115;51.038;7.006;2022-10-30T13:34:54;15.97;;;4.90;;
4202;SDS011;2115;51.038;7.006;2022-10-30T13:40:13;11.90;;;4.20;;
4202;SDS011;2115;51.038;7.006;2022-10-30T13:42:49;14.07;;;3.80;;
4202;SDS011;2115;51.038;7.006;2022-10-30T13:45:35;13.73;;;4.50;;
4202;SDS011;2115;51.038;7.006;2022-10-30T13:50:53;15.33;;;4.50;;
4202;SDS011;2115;51.038;7.006;2022-10-30T13:53:33;18.00;;;4.87;;
4202;SDS011;2115;51.038;7.006;2022-10-30T13:56:01;19.87;;;4.13;;
4202;SDS011;2115;51.038;7.006;2022-10-30T14:01:15;12.13;;;4.17;;
4202;SDS011;2115;51.038;7.006;2022-10-30T14:11:51;25.10;;;6.40;;
4202;SDS011;2115;51.038;7.006;2022-10-30T14:14:28;11.27;;;3.60;;
4202;SDS011;2115;51.038;7.006;2022-10-30T14:23:04;10.00;;;3.90;;
4202;SDS011;2115;51.038;7.006;2022-10-30T14:25:40;14.90;;;4.70;;
4202;SDS011;2115;51.038;7.006;2022-10-30T14:28:16;15.53;;;3.47;;
4202;SDS011;2115;51.038;7.006;2022-10-30T14:30:43;9.00;;;4.23;;
4202;SDS011;2115;51.038;7.006;2022-10-30T14:33:31;21.70;;;4.60;;
4202;SDS011;2115;51.038;7.006;2022-10-30T14:36:46;16.90;;;4.23;;
4202;SDS011;2115;51.038;7.006;2022-10-30T14:47:27;18.47;;;4.03;;
4202;SDS011;2115;51.038;7.006;2022-10-30T14:55:50;14.13;;;4.13;;
4202;SDS011;2115;51.038;7.006;2022-10-30T14:58:24;14.90;;;3.77;;
4202;SDS011;2115;51.038;7.006;2022-10-30T15:05:56;15.73;;;4.07;;
4202;SDS011;2115;51.038;7.006;2022-10-30T15:11:18;12.97;;;4.40;;
4202;SDS011;2115;51.038;7.006;2022-10-30T15:13:54;17.73;;;4.20;;
4202;SDS011;2115;51.038;7.006;2022-10-30T15:16:21;17.37;;;4.40;;
4202;SDS011;2115;51.038;7.006;2022-10-30T15:18:52;13.80;;;4.07;;
4202;SDS011;2115;51.038;7.006;2022-10-30T15:21:21;13.03;;;5.07;;
4202;SDS011;2115;51.038;7.006;2022-10-30T15:23:49;15.50;;;6.20;;
4202;SDS011;2115;51.038;7.006;2022-10-30T15:26:26;13.90;;;5.40;;
4202;SDS011;2115;51.038;7.006;2022-10-30T15:28:57;20.13;;;6.03;;
4202;SDS011;2115;51.038;7.006;2022-10-30T15:31:23;12.70;;;4.80;;
4202;SDS011;2115;51.038;7.006;2022-10-30T15:33:50;11.37;;;4.70;;
4202;SDS011;2115;51.038;7.006;2022-10-30T15:36:16;15.83;;;4.50;;
4202;SDS011;2115;51.038;7.006;2022-10-30T15:38:42;18.90;;;4.40;;
4202;SDS011;2115;51.038;7.006;2022-10-30T15:41:07;13.53;;;4.40;;
4202;SDS011;2115;51.038;7.006;2022-10-30T15:43:34;12.80;;;4.63;;
4202;SDS011;2115;51.038;7.006;2022-10-30T15:46:01;11.70;;;5.60;;
4202;SDS011;2115;51.038;7.006;2022-10-30T15:48:33;18.93;;;6.40;;
4202;SDS011;2115;51.038;7.006;2022-10-30T15:53:49;16.70;;;4.57;;
4202;SDS011;2115;51.038;7.006;2022-10-30T15:59:02;13.93;;;4.80;;
4202;SDS011;2115;51.038;7.006;2022-10-30T16:01:29;10.90;;;4.47;;
4202;SDS011;2115;51.038;7.006;2022-10-30T16:03:56;11.07;;;3.93;;
4202;SDS011;2115;51.038;7.006;2022-10-30T16:06:26;17.73;;;4.10;;
4202;SDS011;2115;51.038;7.006;2022-10-30T16:08:53;14.63;;;4.40;;
4202;SDS011;2115;51.038;7.006;2022-10-30T16:11:19;20.53;;;6.83;;
4202;SDS011;2115;51.038;7.006;2022-10-30T16:13:46;19.77;;;9.57;;
4202;SDS011;2115;51.038;7.006;2022-10-30T16:16:14;42.47;;;20.17;;
4202;SDS011;2115;51.038;7.006;2022-10-30T16:18:44;41.80;;;21.23;;
4202;SDS011;2115;51.038;7.006;2022-10-30T16:21:11;51.77;;;23.07;;
4202;SDS011;2115;51.038;7.006;2022-10-30T16:23:39;36.83;;;15.87;;
4202;SDS011;2115;51.038;7.006;2022-10-30T16:26:06;56.10;;;20.40;;
4202;SDS011;2115;51.038;7.006;2022-10-30T16:28:53;29.53;;;13.53;;
4202;SDS011;2115;51.038;7.006;2022-10-30T16:31:19;24.03;;;10.10;;
4202;SDS011;2115;51.038;7.006;2022-10-30T16:33:45;21.00;;;8.57;;
4202;SDS011;2115;51.038;7.006;2022-10-30T16:36:14;36.60;;;10.67;;
4202;SDS011;2115;51.038;7.006;2022-10-30T16:38:41;27.10;;;11.03;;
4202;SDS011;2115;51.038;7.006;2022-10-30T16:41:07;17.83;;;9.13;;
4202;SDS011;2115;51.038;7.006;2022-10-30T16:43:37;20.03;;;9.27;;
4202;SDS011;2115;51.038;7.006;2022-10-30T16:48:40;22.00;;;7.43;;
4202;SDS011;2115;51.038;7.006;2022-10-30T16:51:19;18.50;;;8.00;;
4202;SDS011;2115;51.038;7.006;2022-10-30T16:53:49;15.50;;;6.80;;
4202;SDS011;2115;51.038;7.006;2022-10-30T16:56:33;28.37;;;8.00;;
4202;SDS011;2115;51.038;7.006;2022-10-30T16:59:06;13.93;;;6.67;;
4202;SDS011;2115;51.038;7.006;2022-10-30T17:01:36;11.50;;;5.90;;
4202;SDS011;2115;51.038;7.006;2022-10-30T17:04:01;12.57;;;5.90;;
4202;SDS011;2115;51.038;7.006;2022-10-30T17:06:40;14.30;;;6.03;;
4202;SDS011;2115;51.038;7.006;2022-10-30T17:09:28;15.97;;;6.10;;
4202;SDS011;2115;51.038;7.006;2022-10-30T17:17:32;20.87;;;5.90;;
4202;SDS011;2115;51.038;7.006;2022-10-30T17:22:28;16.53;;;6.70;;
4202;SDS011;2115;51.038;7.006;2022-10-30T17:24:54;19.10;;;4.77;;
4202;SDS011;2115;51.038;7.006;2022-10-30T17:29:52;13.17;;;5.60;;
4202;SDS011;2115;51.038;7.006;2022-10-30T17:32:18;11.37;;;5.70;;
4202;SDS011;2115;51.038;7.006;2022-10-30T17:34:46;16.87;;;5.60;;
4202;SDS011;2115;51.038;7.006;2022-10-30T17:37:12;18.87;;;6.10;;
4202;SDS011;2115;51.038;7.006;2022-10-30T17:39:37;26.17;;;6.70;;
4202;SDS011;2115;51.038;7.006;2022-10-30T17:42:03;13.73;;;5.70;;
4202;SDS011;2115;51.038;7.006;2022-10-30T17:44:29;13.03;;;5.73;;
4202;SDS011;2115;51.038;7.006;2022-10-30T17:46:57;11.40;;;5.40;;
4202;SDS011;2115;51.038;7.006;2022-10-30T17:49:24;10.83;;;5.40;;
4202;SDS011;2115;51.038;7.006;2022-10-30T17:51:50;18.80;;;6.20;;